Time;durP1;ratioP1;P1;durP2;ratioP2;P2;SDS_P1;SDS_P2;PMS_P1;PMS_P2;Temp;Humidity;BMP_temperature;BMP_pressure;BME280_temperature;BME280_humidity;BME280_pressure;Samples;Min_cycle;Max_cycle;Signal;HPM_P1;HPM_P2
2022/01/24 00:00:14;;;;;;;19.60;9.55;;;;;;;-6.01;100.00;101207.59;5151388;27;20098;-49
2022/01/24 00:02:42;;;;;;;24.98;10.20;;;;;;;-5.96;100.00;101223.03;5151373;27;20047;-50
2022/01/24 00:05:11;;;;;;;16.98;8.45;;;;;;;-5.99;100.00;101231.44;5151032;27;20528;-49
2022/01/24 00:07:37;;;;;;;19.27;9.52;;;;;;;-5.99;100.00;101236.78;5151820;27;20051;-49
2022/01/24 00:10:07;;;;;;;22.13;10.13;;;;;;;-5.89;100.00;101253.19;5151375;27;20505;-49
2022/01/24 00:12:40;;;;;;;17.60;8.68;;;;;;;-5.84;100.00;101260.56;5151563;27;20195;-49
2022/01/24 00:15:16;;;;;;;27.40;10.48;;;;;;;-5.83;100.00;101262.22;5151207;27;20118;-50
2022/01/24 00:17:49;;;;;;;22.40;9.73;;;;;;;-5.82;100.00;101258.53;5151169;27;20095;-49
2022/01/24 00:28:29;;;;;;;20.23;9.80;;;;;;;-5.93;100.00;101233.25;5151142;27;20053;-51
2022/01/24 00:30:56;;;;;;;25.13;11.32;;;;;;;-5.87;100.00;101243.09;5151456;27;20047;-50
2022/01/24 00:33:23;;;;;;;29.02;12.50;;;;;;;-5.87;100.00;101240.44;5150692;27;20051;-50
2022/01/24 00:35:50;;;;;;;27.63;12.35;;;;;;;-5.89;100.00;101231.81;5150914;27;20505;-50
2022/01/24 00:38:17;;;;;;;46.20;20.10;;;;;;;-5.87;100.00;101237.75;5150912;27;20062;-49
2022/01/24 00:40:46;;;;;;;27.15;12.15;;;;;;;-5.83;100.00;101239.00;5150943;27;20061;-50
2022/01/24 00:43:21;;;;;;;19.90;9.07;;;;;;;-5.80;100.00;101251.13;5151008;27;20058;-49
2022/01/24 00:45:57;;;;;;;18.73;8.48;;;;;;;-5.79;100.00;101237.56;5150866;27;20055;-50
2022/01/24 00:48:54;;;;;;;18.08;8.25;;;;;;;-5.91;100.00;101224.00;5150961;27;20062;-53
2022/01/24 00:56:46;;;;;;;18.23;9.93;;;;;;;-6.04;100.00;101228.53;5149537;27;20135;-50
2022/01/24 00:59:12;;;;;;;19.92;8.27;;;;;;;-5.96;100.00;101247.06;5150723;27;20046;-50
2022/01/24 01:01:39;;;;;;;21.50;10.43;;;;;;;-5.94;100.00;101255.66;5152387;27;20430;-50
2022/01/24 01:04:05;;;;;;;21.90;9.43;;;;;;;-5.97;100.00;101254.22;5154244;27;20098;-50
2022/01/24 01:06:32;;;;;;;23.95;9.43;;;;;;;-5.99;100.00;101247.47;5153991;27;20098;-49
2022/01/24 01:19:56;;;;;;;23.42;9.68;;;;;;;-5.99;100.00;101266.97;5154165;27;19967;-53
2022/01/24 01:22:23;;;;;;;16.73;9.15;;;;;;;-6.03;100.00;101262.22;5154014;27;20421;-51
2022/01/24 01:24:53;;;;;;;21.08;8.77;;;;;;;-6.09;100.00;101268.41;5153843;27;20094;-50
2022/01/24 01:27:24;;;;;;;20.27;10.63;;;;;;;-6.08;100.00;101256.69;5153509;27;20056;-51
2022/01/24 01:29:57;;;;;;;18.05;9.68;;;;;;;-6.06;100.00;101262.66;5154030;27;20053;-53
2022/01/24 01:32:40;;;;;;;17.58;9.35;;;;;;;-6.08;100.00;101254.03;5153942;27;20051;-49
2022/01/24 01:35:26;;;;;;;20.40;9.70;;;;;;;-6.17;100.00;101250.72;5153965;27;20129;-51
2022/01/24 01:38:19;;;;;;;23.10;10.10;;;;;;;-6.10;100.00;101246.19;5153626;27;20463;-49
2022/01/24 01:54:48;;;;;;;;;;;;;;;-6.06;100.00;101246.63;5153714;27;20110;-49
2022/01/24 01:57:16;;;;;;;27.13;9.50;;;;;;;-6.10;100.00;101240.03;5153514;27;19929;-49
2022/01/24 01:59:44;;;;;;;21.38;9.70;;;;;;;-6.10;100.00;101238.19;5153613;27;20043;-49
2022/01/24 02:02:10;;;;;;;18.02;8.80;;;;;;;-6.01;100.00;101246.84;5153270;27;20053;-49
2022/01/24 02:04:36;;;;;;;21.50;9.63;;;;;;;-5.98;100.00;101241.09;5152716;27;20047;-49
2022/01/24 02:07:03;;;;;;;24.42;10.32;;;;;;;-5.96;100.00;101236.38;5153013;27;20051;-52
2022/01/24 02:09:32;;;;;;;19.00;9.10;;;;;;;-6.06;100.00;101220.75;5153544;27;20043;-51
2022/01/24 02:11:58;;;;;;;21.20;10.30;;;;;;;-6.03;100.00;101220.34;5153127;27;20047;-50
2022/01/24 02:14:31;;;;;;;17.92;9.18;;;;;;;-6.11;100.00;101209.03;5152382;27;20618;-49
2022/01/24 02:17:02;;;;;;;21.58;10.23;;;;;;;-6.15;100.00;101205.97;5153171;27;20058;-48
2022/01/24 02:19:36;;;;;;;25.60;9.98;;;;;;;-6.14;100.00;101206.78;5153516;27;20432;-50
2022/01/24 02:22:38;;;;;;;18.10;9.27;;;;;;;-6.12;100.00;101215.41;5153138;27;20139;-50
2022/01/24 02:24:57;;;;;;;22.92;9.82;;;;;;;-6.12;100.00;101218.91;5152707;27;20050;-51
2022/01/24 02:27:26;;;;;;;18.35;9.82;;;;;;;-6.08;100.00;101230.00;5153157;27;20054;-49
2022/01/24 02:30:06;;;;;;;23.98;10.32;;;;;;;-6.09;100.00;101231.03;5152754;27;20047;-50
2022/01/24 02:32:37;;;;;;;19.83;10.20;;;;;;;-6.24;100.00;101225.84;5153253;27;20051;-51
2022/01/24 02:35:03;;;;;;;25.40;11.10;;;;;;;-6.30;100.00;101229.34;5152543;27;20057;-50
2022/01/24 02:37:30;;;;;;;21.88;10.60;;;;;;;-6.24;100.00;101232.00;5152666;27;20053;-50
2022/01/24 02:40:00;;;;;;;20.75;10.10;;;;;;;-6.22;100.00;101221.97;5152788;27;20046;-49
2022/01/24 02:51:01;;;;;;;;;;;;;;;-6.11;100.00;101228.53;5153239;27;20054;-49
2022/01/24 02:53:32;;;;;;;20.50;9.63;;;;;;;-6.10;100.00;101226.69;5152278;27;19922;-49
2022/01/24 02:55:59;;;;;;;29.15;11.90;;;;;;;-6.09;100.00;101223.00;5152754;27;20054;-49
2022/01/24 02:58:25;;;;;;;26.23;13.05;;;;;;;-6.12;100.00;101221.56;5152666;27;20050;-51
2022/01/24 03:00:53;;;;;;;20.40;9.55;;;;;;;-6.10;100.00;101229.34;5152323;27;20053;-48
2022/01/24 03:03:20;;;;;;;30.88;12.65;;;;;;;-6.17;100.00;101222.16;5152690;27;20057;-48
2022/01/24 03:05:46;;;;;;;25.27;11.75;;;;;;;-6.26;100.00;101218.06;5151886;27;20502;-49
2022/01/24 03:08:13;;;;;;;26.42;11.13;;;;;;;-6.29;100.00;101217.66;5152431;27;20421;-48
2022/01/24 03:10:44;;;;;;;21.65;10.50;;;;;;;-6.23;100.00;101222.16;5152123;27;20085;-49
2022/01/24 03:13:20;;;;;;;30.17;12.48;;;;;;;-6.23;100.00;101215.00;5152185;27;20043;-49
2022/01/24 03:15:47;;;;;;;20.38;10.07;;;;;;;-6.22;100.00;101205.13;5151892;27;20594;-50
2022/01/24 03:18:14;;;;;;;26.92;11.45;;;;;;;-6.31;100.00;101199.16;5152049;27;20451;-51
2022/01/24 03:20:41;;;;;;;27.55;11.48;;;;;;;-6.24;100.00;101199.97;5151917;27;20049;-49
2022/01/24 03:23:08;;;;;;;24.17;11.48;;;;;;;-6.16;100.00;101212.34;5152098;27;20047;-54
2022/01/24 03:25:34;;;;;;;27.50;11.13;;;;;;;-6.23;100.00;101198.13;5152133;27;20133;-52
2022/01/24 03:28:03;;;;;;;24.23;10.38;;;;;;;-6.26;100.00;101195.91;5151724;27;20052;-50
2022/01/24 03:30:29;;;;;;;16.13;9.00;;;;;;;-6.29;100.00;101193.63;5152204;27;20086;-50
2022/01/24 03:32:56;;;;;;;26.67;11.48;;;;;;;-6.27;100.00;101191.56;5151747;27;20103;-50
2022/01/24 03:35:22;;;;;;;22.70;11.40;;;;;;;-6.40;100.00;101171.88;5152067;27;20050;-49
2022/01/24 03:37:49;;;;;;;19.77;10.95;;;;;;;-6.41;100.00;101180.06;5151435;27;20454;-50
2022/01/24 03:40:15;;;;;;;25.70;12.43;;;;;;;-6.40;100.00;101189.69;5151742;27;20054;-48
2022/01/24 03:42:41;;;;;;;27.13;10.90;;;;;;;-6.43;100.00;101195.44;5151505;27;20046;-48
2022/01/24 03:45:10;;;;;;;43.60;14.30;;;;;;;-6.35;100.00;101197.94;5151893;27;20054;-48
2022/01/24 03:47:56;;;;;;;30.08;12.40;;;;;;;-6.34;100.00;101199.56;5151803;27;20054;-49
2022/01/24 03:50:22;;;;;;;23.35;11.93;;;;;;;-6.40;100.00;101203.88;5151438;27;20050;-48
2022/01/24 03:52:49;;;;;;;21.80;10.75;;;;;;;-6.38;100.00;101208.19;5151912;27;20069;-49
2022/01/24 03:55:15;;;;;;;27.08;12.00;;;;;;;-6.38;100.00;101202.84;5151186;27;20057;-49
2022/01/24 03:57:42;;;;;;;25.05;11.85;;;;;;;-6.47;100.00;101219.03;5151686;27;20050;-49
2022/01/24 04:00:10;;;;;;;22.55;11.10;;;;;;;-6.47;100.00;101202.22;5151317;27;20428;-50
2022/01/24 04:02:36;;;;;;;27.52;12.10;;;;;;;-6.44;100.00;101210.63;5151537;27;20137;-50
2022/01/24 04:05:03;;;;;;;20.15;10.35;;;;;;;-6.52;100.00;101204.69;5150776;27;20051;-51
2022/01/24 04:07:29;;;;;;;22.85;11.10;;;;;;;-6.58;100.00;101208.16;5151379;27;20550;-50
2022/01/24 04:09:59;;;;;;;20.92;11.02;;;;;;;-6.57;100.00;101205.25;5151188;27;20050;-48
2022/01/24 04:12:26;;;;;;;20.98;12.05;;;;;;;-6.71;100.00;101204.41;5151498;27;20050;-48
2022/01/24 04:15:11;;;;;;;27.05;12.27;;;;;;;-6.76;100.00;101212.22;5151372;27;20051;-49
2022/01/24 04:17:41;;;;;;;28.05;11.45;;;;;;;-6.67;100.00;101229.66;5151057;27;20050;-50
2022/01/24 04:22:55;;;;;;;25.90;11.85;;;;;;;-6.55;100.00;101242.44;5151005;27;20049;-48
2022/01/24 04:25:23;;;;;;;23.80;11.77;;;;;;;-6.55;100.00;101240.59;5151282;27;20054;-48
2022/01/24 04:27:51;;;;;;;23.92;12.00;;;;;;;-6.50;100.00;101250.66;5151094;27;20050;-49
2022/01/24 04:30:17;;;;;;;23.80;9.40;;;;;;;-6.63;100.00;101232.75;5151068;27;20043;-49
2022/01/24 04:32:44;;;;;;;20.65;10.60;;;;;;;-6.66;100.00;101233.19;5150895;27;20051;-50
2022/01/24 04:35:11;;;;;;;24.15;10.23;;;;;;;-6.68;100.00;101225.34;5151029;27;20046;-49
2022/01/24 04:37:37;;;;;;;22.00;10.70;;;;;;;-6.60;100.00;101229.69;5153658;27;20051;-53
2022/01/24 04:40:04;;;;;;;22.30;10.75;;;;;;;-6.57;100.00;101244.47;5154536;27;20054;-53
2022/01/24 04:42:39;;;;;;;21.90;11.27;;;;;;;-6.52;100.00;101242.84;5154420;27;20073;-50
2022/01/24 04:45:27;;;;;;;21.90;10.13;;;;;;;-6.45;100.00;101245.53;5154320;27;20046;-49
2022/01/24 04:50:58;;;;;;;24.30;10.07;;;;;;;-6.56;100.00;101225.59;5154613;27;20046;-50
2022/01/24 04:53:45;;;;;;;21.38;10.45;;;;;;;-6.58;100.00;101221.50;5153913;27;20051;-50
2022/01/24 04:56:12;;;;;;;18.15;9.55;;;;;;;-6.58;100.00;101222.31;5154166;27;20501;-50
2022/01/24 04:58:38;;;;;;;17.98;9.82;;;;;;;-6.65;100.00;101227.63;5153966;27;20568;-50
2022/01/24 05:01:04;;;;;;;15.95;9.18;;;;;;;-6.62;100.00;101226.41;5154087;27;20051;-51
2022/01/24 05:03:31;;;;;;;20.88;10.00;;;;;;;-6.42;100.00;101253.97;5154027;27;20050;-52
2022/01/24 05:05:58;;;;;;;18.42;9.13;;;;;;;-6.24;100.00;101263.22;5153424;27;20520;-51
2022/01/24 05:08:24;;;;;;;17.08;8.75;;;;;;;-6.14;100.00;101244.97;5153756;27;20054;-50
2022/01/24 05:10:57;;;;;;;17.33;9.02;;;;;;;-5.99;100.00;101236.78;5154087;27;20047;-50
2022/01/24 05:23:25;;;;;;;30.17;9.82;;;;;;;-6.19;100.00;101130.78;5153846;27;20049;-52
2022/01/24 05:24:30;;;;;;;19.80;8.95;;;;;;;-6.27;100.00;101122.16;5152663;27;20057;-50
2022/01/24 05:26:56;;;;;;;22.27;9.55;;;;;;;-6.21;100.00;101130.16;5153514;27;20513;-48
2022/01/24 05:29:22;;;;;;;13.65;7.40;;;;;;;-6.07;100.00;101149.66;5153638;27;20050;-49
2022/01/24 05:31:49;;;;;;;19.90;9.43;;;;;;;-6.13;100.00;101150.50;5153684;27;20078;-48
2022/01/24 05:34:16;;;;;;;20.58;9.32;;;;;;;-6.12;100.00;101143.31;5153580;27;20042;-51
2022/01/24 05:36:42;;;;;;;29.08;12.48;;;;;;;-5.99;100.00;101146.78;5153482;27;20046;-49
2022/01/24 05:39:08;;;;;;;23.40;10.43;;;;;;;-5.99;100.00;101137.97;5153249;27;20069;-53
2022/01/24 05:41:37;;;;;;;19.35;8.80;;;;;;;-5.99;100.00;101127.28;5153411;27;20050;-50
2022/01/24 05:44:03;;;;;;;19.85;8.60;;;;;;;-6.31;100.00;101080.91;5153523;27;20179;-53
2022/01/24 05:46:30;;;;;;;18.08;8.95;;;;;;;-6.20;100.00;101114.97;5153130;27;20051;-50
2022/01/24 05:48:56;;;;;;;17.00;9.18;;;;;;;-5.99;100.00;101145.97;5151993;27;20051;-51
2022/01/24 05:51:24;;;;;;;22.27;9.63;;;;;;;-5.75;100.00;101172.00;5153213;27;20155;-50
2022/01/24 05:53:50;;;;;;;20.60;9.82;;;;;;;-5.70;100.00;101153.50;5153529;27;20051;-51
2022/01/24 05:56:17;;;;;;;25.95;11.10;;;;;;;-5.72;100.00;101112.81;5155836;27;20058;-52
2022/01/24 05:58:43;;;;;;;23.40;10.38;;;;;;;-5.73;100.00;101094.31;5153450;27;20053;-51
2022/01/24 06:01:09;;;;;;;15.43;8.90;;;;;;;-5.74;100.00;101080.13;5153169;27;20051;-53
2022/01/24 06:03:36;;;;;;;15.20;8.57;;;;;;;-5.76;100.00;101068.03;5164788;27;20053;-55
2022/01/24 06:06:02;;;;;;;25.73;9.20;;;;;;;-5.83;100.00;101054.69;5173223;27;20568;-51
2022/01/24 06:08:29;;;;;;;18.63;8.63;;;;;;;-5.79;100.00;101057.78;5154779;27;20820;-50
2022/01/24 06:10:58;;;;;;;19.05;9.23;;;;;;;-5.76;100.00;101057.34;5155079;27;20087;-49
2022/01/24 06:13:25;;;;;;;22.48;10.55;;;;;;;-5.82;100.00;101032.28;5153579;27;20130;-51
2022/01/24 06:15:51;;;;;;;19.95;9.38;;;;;;;-5.68;100.00;101046.41;5154331;27;20102;-50
2022/01/24 06:18:18;;;;;;;24.10;10.98;;;;;;;-5.66;100.00;101025.66;5159125;27;20058;-51
2022/01/24 06:20:44;;;;;;;25.15;9.93;;;;;;;-5.70;100.00;101013.72;5164208;27;20073;-52
2022/01/24 06:23:13;;;;;;;20.42;9.13;;;;;;;-5.64;100.00;101017.41;5169811;27;20153;-55
2022/01/24 06:25:40;;;;;;;21.42;9.82;;;;;;;-5.70;100.00;100989.69;5158307;27;20046;-54
2022/01/24 06:28:06;;;;;;;22.35;10.98;;;;;;;-5.64;100.00;100990.69;5162082;27;20061;-51
2022/01/24 06:30:32;;;;;;;21.08;10.38;;;;;;;-5.76;100.00;100970.00;5161793;27;20046;-55
2022/01/24 06:32:58;;;;;;;23.67;10.88;;;;;;;-5.78;100.00;100950.69;5155673;27;20122;-52
2022/01/24 06:35:25;;;;;;;20.23;10.07;;;;;;;-5.84;100.00;100935.50;5152330;27;20133;-50
2022/01/24 06:37:51;;;;;;;20.08;10.43;;;;;;;-5.99;100.00;100932.34;5154080;27;20051;-50
2022/01/24 06:40:17;;;;;;;24.58;10.80;;;;;;;-6.10;100.00;100939.13;5171937;27;20054;-50
2022/01/24 06:42:44;;;;;;;20.83;10.43;;;;;;;-6.05;100.00;100976.72;5173400;27;20057;-56
2022/01/24 06:45:11;;;;;;;27.10;10.50;;;;;;;-5.99;100.00;101007.13;5173519;27;20050;-53
2022/01/24 06:47:38;;;;;;;22.35;10.38;;;;;;;-5.91;100.00;101015.66;5172662;27;20053;-53
2022/01/24 06:50:05;;;;;;;23.15;9.50;;;;;;;-5.81;100.00;101025.09;5173461;27;20050;-60
2022/01/24 06:52:31;;;;;;;23.15;10.55;;;;;;;-5.72;100.00;101034.50;5171278;27;20050;-51
2022/01/24 06:54:58;;;;;;;19.15;9.75;;;;;;;-5.60;100.00;101029.31;5173130;27;20046;-52
2022/01/24 06:57:25;;;;;;;23.88;10.20;;;;;;;-5.54;100.00;101012.44;5173382;27;20549;-53
2022/01/24 06:59:52;;;;;;;23.02;10.05;;;;;;;-5.42;100.00;101007.25;5172791;27;20427;-52
2022/01/24 07:02:18;;;;;;;20.95;10.73;;;;;;;-5.45;100.00;100976.41;5175291;27;20734;-53
2022/01/24 07:04:44;;;;;;;22.02;10.45;;;;;;;-5.55;100.00;100931.44;5170426;27;20050;-54
2022/01/24 07:07:12;;;;;;;23.45;11.00;;;;;;;-5.51;100.00;100918.47;5172687;27;20145;-54
2022/01/24 07:09:39;;;;;;;22.48;11.43;;;;;;;-5.55;100.00;100907.41;5173265;27;20045;-51
2022/01/24 07:12:06;;;;;;;27.08;11.25;;;;;;;-5.55;100.00;100888.69;5171076;27;20054;-55
2022/01/24 07:14:33;;;;;;;19.55;11.30;;;;;;;-5.53;100.00;100881.28;5167919;27;20072;-50
2022/01/24 07:17:08;;;;;;;24.17;11.02;;;;;;;-5.53;100.00;100869.75;5172563;27;20056;-51
2022/01/24 07:19:34;;;;;;;22.85;11.65;;;;;;;-5.60;100.00;100850.28;5172732;27;20043;-55
2022/01/24 07:22:02;;;;;;;24.42;11.27;;;;;;;-5.56;100.00;100854.19;5172593;27;20560;-49
2022/01/24 07:24:29;;;;;;;25.90;11.60;;;;;;;-5.55;100.00;100850.47;5172921;27;20063;-55
2022/01/24 07:26:55;;;;;;;22.98;11.65;;;;;;;-5.44;100.00;100857.75;5172609;27;20073;-55
2022/01/24 07:29:22;;;;;;;20.27;10.98;;;;;;;-5.62;100.00;100812.28;5172682;27;20099;-54
2022/01/24 07:31:48;;;;;;;22.17;10.38;;;;;;;-5.77;100.00;100789.38;5172466;27;20499;-53
2022/01/24 07:34:16;;;;;;;21.13;11.07;;;;;;;-5.86;100.00;100789.84;5172518;27;20081;-52
2022/01/24 07:36:42;;;;;;;25.17;11.15;;;;;;;-5.87;100.00;100807.72;5172404;27;20050;-50
2022/01/24 07:39:09;;;;;;;22.23;10.20;;;;;;;-5.77;100.00;100856.16;5171749;27;20075;-57
2022/01/24 07:41:42;;;;;;;25.42;11.82;;;;;;;-5.75;100.00;100854.09;5172084;27;20098;-54
2022/01/24 07:44:09;;;;;;;23.92;12.00;;;;;;;-5.78;100.00;100856.38;5172229;27;20046;-56
2022/01/24 07:46:35;;;;;;;24.17;11.73;;;;;;;-5.87;100.00;100850.47;5171666;27;20070;-54
2022/01/24 07:49:03;;;;;;;27.25;12.27;;;;;;;-5.93;100.00;100862.03;5171520;27;20046;-59
2022/01/24 07:51:30;;;;;;;26.05;12.65;;;;;;;-5.93;100.00;100883.41;5171411;27;20053;-60
2022/01/24 07:53:56;;;;;;;30.13;12.05;;;;;;;-6.09;100.00;100891.94;5171637;27;20047;-60
2022/01/24 07:56:22;;;;;;;27.33;12.45;;;;;;;-6.09;100.00;100921.28;5157822;27;20129;-56
2022/01/24 07:58:49;;;;;;;26.35;12.27;;;;;;;-6.14;100.00;100929.13;5150544;27;20051;-57
2022/01/24 08:01:15;;;;;;;26.30;12.95;;;;;;;-6.35;100.00;100914.22;5154707;27;20050;-59
2022/01/24 08:03:43;;;;;;;25.55;11.65;;;;;;;-6.47;100.00;100938.84;5164739;27;20046;-54
2022/01/24 08:06:09;;;;;;;27.83;12.63;;;;;;;-6.37;100.00;100981.13;5169432;27;20100;-57
2022/01/24 08:08:36;;;;;;;31.38;14.43;;;;;;;-6.24;100.00;101029.13;5171416;27;20828;-55
2022/01/24 08:11:02;;;;;;;30.88;13.48;;;;;;;-6.34;100.00;101028.75;5170635;27;20042;-55
2022/01/24 08:13:29;;;;;;;30.95;14.60;;;;;;;-6.24;100.00;101042.47;5171535;27;20857;-52
2022/01/24 08:15:55;;;;;;;24.80;12.55;;;;;;;-6.28;100.00;101051.13;5171528;27;20053;-55
2022/01/24 08:18:21;;;;;;;26.88;12.40;;;;;;;-6.40;100.00;101046.44;5165205;27;20077;-60
2022/01/24 08:20:47;;;;;;;26.55;12.60;;;;;;;-6.34;100.00;101052.75;5171729;27;20050;-61
2022/01/24 08:23:15;;;;;;;24.85;12.13;;;;;;;-6.34;100.00;101043.94;5171440;27;20058;-56
2022/01/24 08:25:42;;;;;;;26.52;12.55;;;;;;;-6.35;100.00;101037.78;5171416;27;20454;-60
2022/01/24 08:28:08;;;;;;;32.25;12.82;;;;;;;-6.30;100.00;101029.97;5171703;27;20087;-54
2022/01/24 08:30:34;;;;;;;33.38;14.77;;;;;;;-6.21;100.00;101043.91;5171326;27;20106;-56
2022/01/24 08:33:01;;;;;;;32.60;14.48;;;;;;;-6.23;100.00;101029.94;5171715;27;20102;-54
2022/01/24 08:35:27;;;;;;;29.40;12.70;;;;;;;-6.18;100.00;101032.84;5171408;27;20050;-53
2022/01/24 08:37:53;;;;;;;31.73;13.95;;;;;;;-6.06;100.00;101038.38;5171564;27;20072;-55
2022/01/24 08:40:25;;;;;;;28.98;14.20;;;;;;;-5.99;100.00;101037.31;5171283;27;20056;-56
2022/01/24 08:42:58;;;;;;;29.23;13.70;;;;;;;-5.94;100.00;101031.31;5171603;27;20065;-52
2022/01/24 08:48:25;;;;;;;36.47;15.20;;;;;;;-5.96;100.00;100983.47;5106565;28;20047;-53
2022/01/24 08:50:54;;;;;;;28.95;12.93;;;;;;;-5.92;100.00;100987.31;5106630;28;20080;-53
2022/01/24 08:53:21;;;;;;;26.48;13.93;;;;;;;-5.84;100.00;100980.91;5126825;27;20058;-53
2022/01/24 08:55:48;;;;;;;32.80;13.93;;;;;;;-5.86;100.00;100964.31;5159082;27;20050;-53
2022/01/24 08:58:15;;;;;;;28.88;12.20;;;;;;;-6.03;100.00;100923.94;5170956;27;20061;-55
2022/01/24 09:00:43;;;;;;;375.85;77.22;;;;;;;-5.91;100.00;100924.03;5171073;27;20457;-55
2022/01/24 09:03:10;;;;;;;32.92;13.85;;;;;;;-5.91;100.00;100918.69;5169424;27;20094;-55
2022/01/24 09:05:36;;;;;;;24.60;12.73;;;;;;;-5.89;100.00;100900.63;5170402;27;20590;-55
2022/01/24 09:08:04;;;;;;;29.58;13.32;;;;;;;-5.92;100.00;100887.69;5171432;27;20140;-52
2022/01/24 09:10:31;;;;;;;33.72;15.20;;;;;;;-5.99;100.00;100879.75;5162080;27;20054;-52
2022/01/24 09:12:57;;;;;;;30.38;13.68;;;;;;;-5.99;100.00;100881.59;5150344;27;20101;-54
2022/01/24 09:15:24;;;;;;;36.90;15.23;;;;;;;-6.03;100.00;100880.38;5149894;27;20050;-51
2022/01/24 09:17:51;;;;;;;29.17;14.48;;;;;;;-6.03;100.00;100907.06;5150168;27;20047;-52
2022/01/24 09:20:17;;;;;;;26.75;13.07;;;;;;;-6.05;100.00;100904.63;5153557;27;20047;-52
2022/01/24 09:22:45;;;;;;;32.78;15.00;;;;;;;-5.96;100.00;100902.53;5172807;27;20098;-55
2022/01/24 09:25:15;;;;;;;25.40;13.85;;;;;;;-5.97;100.00;100890.19;5174710;27;20053;-52
2022/01/24 09:27:42;;;;;;;28.70;12.48;;;;;;;-5.91;100.00;100882.13;5174925;27;20119;-55
2022/01/24 09:30:10;;;;;;;43.20;16.85;;;;;;;-5.84;100.00;100878.59;5174586;27;20052;-53
2022/01/24 09:32:37;;;;;;;39.50;15.25;;;;;;;-5.85;100.00;100872.44;5174260;27;20042;-52
2022/01/24 09:35:05;;;;;;;36.33;16.00;;;;;;;-5.72;100.00;100880.38;5172749;27;20528;-53
2022/01/24 09:37:32;;;;;;;32.97;14.95;;;;;;;-5.64;100.00;100887.31;5174096;27;20068;-56
2022/01/24 09:39:58;;;;;;;30.38;14.35;;;;;;;-5.63;100.00;100878.28;5174303;27;20151;-56
2022/01/24 09:42:25;;;;;;;26.55;13.70;;;;;;;-5.54;100.00;100866.25;5174223;27;20133;-52
2022/01/24 09:44:51;;;;;;;31.20;13.85;;;;;;;-5.62;100.00;100837.16;5165820;27;20057;-52
2022/01/24 09:47:18;;;;;;;40.35;16.02;;;;;;;-5.62;100.00;100817.63;5153528;27;20050;-55
2022/01/24 09:49:46;;;;;;;31.73;14.32;;;;;;;-5.63;100.00;100807.97;5154966;27;20046;-52
2022/01/24 09:52:13;;;;;;;42.03;17.27;;;;;;;-5.72;100.00;100772.69;5153519;27;20050;-55
2022/01/24 09:54:39;;;;;;;34.05;15.73;;;;;;;-5.58;100.00;100776.06;5155879;27;20042;-54
2022/01/24 09:57:06;;;;;;;31.90;15.43;;;;;;;-5.71;100.00;100753.78;5171869;27;20797;-53
2022/01/24 09:59:32;;;;;;;31.83;14.85;;;;;;;-5.76;100.00;100745.59;5172939;27;20050;-51
2022/01/24 10:01:59;;;;;;;31.83;15.25;;;;;;;-5.77;100.00;100743.94;5153095;27;20390;-53
2022/01/24 10:04:26;;;;;;;31.05;15.35;;;;;;;-5.75;100.00;100736.56;5153992;27;20050;-54
2022/01/24 10:06:57;;;;;;;29.60;13.60;;;;;;;-5.72;100.00;100732.63;5169119;27;20050;-52
2022/01/24 10:09:31;;;;;;;29.13;13.68;;;;;;;-5.85;100.00;100719.38;5173331;27;20050;-55
2022/01/24 10:12:08;;;;;;;32.10;14.77;;;;;;;-5.82;100.00;100743.00;5173559;27;20501;-51
2022/01/24 10:17:20;;;;;;;30.77;13.32;;;;;;;-5.74;100.00;100743.53;5152188;27;20463;-51
2022/01/24 10:19:47;;;;;;;38.28;15.70;;;;;;;-5.87;100.00;100730.28;5152499;27;20491;-54
2022/01/24 10:22:14;;;;;;;40.28;16.17;;;;;;;-5.74;100.00;100742.72;5166778;27;20050;-54
2022/01/24 10:24:42;;;;;;;29.92;14.55;;;;;;;-5.80;100.00;100736.38;5167400;27;20047;-53
2022/01/24 10:27:15;;;;;;;28.83;13.20;;;;;;;-5.79;100.00;100731.88;5152281;27;20497;-50
2022/01/24 10:29:46;;;;;;;29.40;13.65;;;;;;;-5.80;100.00;100725.69;5152203;27;20049;-53
2022/01/24 10:32:38;;;;;;;34.67;15.00;;;;;;;-5.56;100.00;100764.13;5152363;27;20494;-51
2022/01/24 10:35:25;;;;;;;29.88;14.32;;;;;;;-5.42;100.00;100774.72;5151540;27;20106;-53
2022/01/24 10:38:12;;;;;;;28.55;13.60;;;;;;;-5.56;100.00;100720.56;5152432;27;20047;-54
2022/01/24 10:40:48;;;;;;;32.95;14.70;;;;;;;-5.61;100.00;100709.72;5152215;27;20190;-50
2022/01/24 10:43:23;;;;;;;35.45;15.90;;;;;;;-5.53;100.00;100718.28;5151732;27;20055;-53
2022/01/24 10:45:51;;;;;;;34.20;14.98;;;;;;;-5.42;100.00;100719.41;5152184;27;20046;-55
2022/01/24 10:48:23;;;;;;;31.67;13.93;;;;;;;-5.30;100.00;100725.66;5152928;27;20051;-52
2022/01/24 10:51:10;;;;;;;37.53;15.73;;;;;;;-5.35;100.00;100672.03;5162909;27;20051;-53
2022/01/24 10:53:39;;;;;;;31.77;13.57;;;;;;;-5.28;100.00;100654.03;5152260;27;20068;-53
2022/01/24 10:56:40;;;;;;;31.33;13.75;;;;;;;-5.22;100.00;100647.00;5152092;27;20047;-53
2022/01/24 10:59:17;;;;;;;30.88;13.85;;;;;;;-5.32;100.00;100628.00;5047880;28;20053;-50
2022/01/24 11:01:45;;;;;;;29.08;15.10;;;;;;;-5.34;100.00;100622.84;5047865;28;20144;-52
2022/01/24 11:04:13;;;;;;;30.98;15.00;;;;;;;-5.40;100.00;100614.91;5051553;28;20052;-54
2022/01/24 11:06:41;;;;;;;29.27;13.38;;;;;;;-5.37;100.00;100619.81;5067168;28;20064;-50
2022/01/24 11:09:19;;;;;;;41.45;15.85;;;;;;;-5.41;100.00;100621.31;5067820;28;20056;-59
2022/01/24 11:11:46;;;;;;;33.58;12.65;;;;;;;-5.49;100.00;100614.44;5067349;28;20139;-58
2022/01/24 11:14:16;;;;;;;31.88;13.90;;;;;;;-5.46;100.00;100622.00;5067817;28;20052;-54
2022/01/24 11:16:44;;;;;;;27.35;12.38;;;;;;;-5.39;100.00;100635.28;5063481;28;20413;-52
2022/01/24 11:19:16;;;;;;;30.02;11.95;;;;;;;-5.47;100.00;100623.00;5047360;28;20049;-53
2022/01/24 11:21:46;;;;;;;28.23;12.95;;;;;;;-5.57;100.00;100598.69;5045482;28;20049;-51
2022/01/24 11:24:17;;;;;;;26.17;12.88;;;;;;;-5.53;100.00;100608.72;5047755;28;20527;-57
2022/01/24 11:26:45;;;;;;;33.13;14.32;;;;;;;-5.66;100.00;100574.13;5047684;28;20076;-55
2022/01/24 11:29:12;;;;;;;25.15;11.70;;;;;;;-5.63;100.00;100578.19;5068118;27;20133;-51
2022/01/24 11:31:44;;;;;;;25.25;12.32;;;;;;;-5.52;100.00;100577.47;5165497;27;20046;-53
2022/01/24 11:34:19;;;;;;;32.40;14.45;;;;;;;-5.39;100.00;100585.31;5172321;27;20046;-53
2022/01/24 11:36:45;;;;;;;32.05;14.52;;;;;;;-5.30;100.00;100572.44;5172026;27;20409;-51
2022/01/24 11:39:12;;;;;;;39.40;14.60;;;;;;;-5.37;100.00;100539.63;5171868;27;20073;-52
2022/01/24 11:41:40;;;;;;;34.88;14.10;;;;;;;-5.42;100.00;100513.59;5172113;27;20500;-54
2022/01/24 11:44:11;;;;;;;31.50;14.07;;;;;;;-5.50;100.00;100484.50;5171934;27;20137;-50
2022/01/24 11:46:44;;;;;;;28.77;13.23;;;;;;;-5.39;100.00;100494.44;5165337;27;20621;-51
2022/01/24 11:49:12;;;;;;;29.25;14.30;;;;;;;-5.42;100.00;100496.75;5150953;27;20042;-53
2022/01/24 11:51:39;;;;;;;28.40;13.10;;;;;;;-5.43;100.00;100506.63;5151409;27;20409;-53
2022/01/24 11:54:30;;;;;;;28.88;14.55;;;;;;;-5.47;100.00;100497.41;5151007;27;20460;-53
2022/01/24 11:57:14;;;;;;;34.65;14.20;;;;;;;-5.44;100.00;100496.97;5151285;27;20043;-60
2022/01/24 11:59:42;;;;;;;36.75;14.10;;;;;;;-5.50;100.00;100497.88;5151123;27;20050;-51
2022/01/24 12:02:10;;;;;;;30.80;13.75;;;;;;;-5.54;100.00;100512.72;5150683;27;20046;-52
2022/01/24 12:04:57;;;;;;;25.65;12.55;;;;;;;-5.58;100.00;100509.69;5148691;27;20058;-52
2022/01/24 12:07:25;;;;;;;34.53;14.10;;;;;;;-5.61;100.00;100502.13;5165168;27;20102;-51
2022/01/24 12:09:53;;;;;;;28.17;13.40;;;;;;;-5.57;100.00;100497.13;5171539;27;20046;-50
2022/01/24 12:12:46;;;;;;;25.00;13.00;;;;;;;-5.49;100.00;100510.19;5169990;27;20561;-50
2022/01/24 12:15:58;;;;;;;34.22;15.20;;;;;;;-5.40;100.00;100521.38;5171949;27;20046;-50
2022/01/24 12:18:52;;;;;;;31.67;13.98;;;;;;;-5.50;100.00;100490.69;5171201;27;20046;-54
2022/01/24 12:21:22;;;;;;;27.88;12.48;;;;;;;-5.48;100.00;100487.78;5172205;27;20047;-53